createdAt,value
2019-03-04T00:01:04.851Z,99035.77
2019-03-04T00:03:36.633Z,99024.38
2019-03-04T00:06:07.941Z,99008.93
2019-03-04T00:08:39.881Z,99002.84
2019-03-04T00:11:11.157Z,99005.34
2019-03-04T00:13:42.418Z,98982.92
2019-03-04T00:16:14.407Z,98976.84
2019-03-04T00:18:45.945Z,98966.89
2019-03-04T00:21:17.505Z,98963.02
2019-03-04T00:23:49.151Z,98945.81
2019-03-04T00:26:20.436Z,98935.65
2019-03-04T00:28:52.264Z,98928.85
2019-03-04T00:31:23.562Z,98932.54
2019-03-04T00:33:55.375Z,98924.69
2019-03-04T00:36:26.656Z,98940.58
2019-03-04T00:38:57.928Z,98938.84
2019-03-04T00:41:29.172Z,98947.30
2019-03-04T00:44:00.418Z,98931.16
2019-03-04T00:46:32.053Z,98932.91
2019-03-04T00:49:03.707Z,98911.20
2019-03-04T00:51:34.974Z,98911.20
2019-03-04T00:54:06.263Z,98906.09
2019-03-04T00:56:37.784Z,98909.73
2019-03-04T00:59:09.232Z,98904.70
2019-03-04T01:01:40.883Z,98908.66
2019-03-04T01:04:12.576Z,98910.42
2019-03-04T01:06:43.785Z,98906.98
2019-03-04T01:09:16.344Z,98907.20
2019-03-04T01:11:48.057Z,98910.25
2019-03-04T01:14:19.316Z,98911.04
2019-03-04T01:16:50.653Z,98907.94
2019-03-04T01:19:21.875Z,98930.25
2019-03-04T01:21:53.192Z,98950.86
2019-03-04T01:24:24.762Z,98954.73
2019-03-04T01:26:56.355Z,98957.45
2019-03-04T01:29:27.913Z,98955.78
2019-03-04T01:31:59.520Z,98945.27
2019-03-04T01:34:30.755Z,98937.22
2019-03-04T01:37:02.060Z,98930.71
2019-03-04T01:39:33.973Z,98923.14
2019-03-04T01:42:05.217Z,98910.50
2019-03-04T01:44:37.065Z,98906.83
2019-03-04T01:47:08.325Z,98894.27
2019-03-04T01:49:39.566Z,98883.75
2019-03-04T01:52:10.785Z,98868.12
2019-03-04T01:54:42.370Z,98867.61
2019-03-04T01:57:13.804Z,98858.91
2019-03-04T01:59:45.171Z,98859.60
2019-03-04T02:02:16.502Z,98852.22
2019-03-04T02:04:48.228Z,98846.28
2019-03-04T02:07:20.404Z,98833.58
2019-03-04T02:09:51.775Z,98833.58
2019-03-04T02:12:23.599Z,98833.13
2019-03-04T02:14:55.204Z,98819.36
2019-03-04T02:17:27.104Z,98820.75
2019-03-04T02:19:58.942Z,98810.65
2019-03-04T02:22:30.215Z,98799.58
2019-03-04T02:25:01.493Z,98810.14
2019-03-04T02:27:33.102Z,98798.67
2019-03-04T02:30:06.534Z,98787.39
2019-03-04T02:32:39.084Z,98779.03
2019-03-04T02:35:10.657Z,98776.36
2019-03-04T02:37:41.949Z,98778.62
2019-03-04T02:40:14.797Z,98773.47
2019-03-04T02:42:46.374Z,98764.75
2019-03-04T02:45:19.496Z,98763.48
2019-03-04T02:47:50.968Z,98779.33
2019-03-04T02:50:23.301Z,98774.14
2019-03-04T02:52:54.834Z,98755.34
2019-03-04T02:55:26.425Z,98746.17
2019-03-04T02:57:58.071Z,98737.72
2019-03-04T03:00:29.387Z,98732.22
2019-03-04T03:03:01.495Z,98722.14
2019-03-04T03:05:32.795Z,98710.06
2019-03-04T03:08:04.175Z,98699.81
2019-03-04T03:10:35.511Z,98699.30
2019-03-04T03:13:06.768Z,98673.31
2019-03-04T03:15:38.041Z,98673.45
2019-03-04T03:18:09.341Z,98671.29
2019-03-04T03:20:40.684Z,98659.04
2019-03-04T03:23:11.958Z,98667.25
2019-03-04T03:25:43.362Z,98668.81
2019-03-04T03:28:14.906Z,98659.89
2019-03-04T03:30:46.162Z,98655.41
2019-03-04T03:33:17.508Z,98652.13
2019-03-04T03:35:49.191Z,98654.52
2019-03-04T03:38:20.417Z,98640.59
2019-03-04T03:40:51.685Z,98642.52
2019-03-04T03:43:22.916Z,98626.94
2019-03-04T03:45:54.113Z,98629.01
2019-03-04T03:48:26.222Z,98621.84
2019-03-04T03:50:57.745Z,98615.23
2019-03-04T03:53:29.247Z,98604.89
2019-03-04T03:56:01.060Z,98607.52
2019-03-04T03:58:32.425Z,98595.41
2019-03-04T04:01:05.086Z,98593.25
2019-03-04T04:03:36.455Z,98591.23
2019-03-04T04:06:07.694Z,98586.91
2019-03-04T04:08:40.895Z,98573.05
2019-03-04T04:11:12.211Z,98567.02
2019-03-04T04:13:43.459Z,98585.85
2019-03-04T04:16:14.713Z,98579.14
2019-03-04T04:18:45.996Z,98578.89
2019-03-04T04:21:17.483Z,98581.84
2019-03-04T04:23:48.761Z,98567.41
2019-03-04T04:26:23.183Z,98581.51
2019-03-04T04:29:05.953Z,98576.31
2019-03-04T04:31:37.586Z,98558.23
2019-03-04T04:34:09.258Z,98544.95
2019-03-04T04:36:40.906Z,98507.53
2019-03-04T04:39:12.391Z,98502.34
2019-03-04T04:41:43.591Z,98515.50
2019-03-04T04:44:15.210Z,98519.63
2019-03-04T04:47:07.616Z,98519.80
2019-03-04T04:49:38.880Z,98513.34
2019-03-04T04:52:10.448Z,98498.48
2019-03-04T04:54:42.288Z,98488.48
2019-03-04T04:57:13.908Z,98489.41
2019-03-04T04:59:45.495Z,98472.87
2019-03-04T05:02:17.058Z,98470.34
2019-03-04T05:04:48.394Z,98474.27
2019-03-04T05:07:20.111Z,98480.15
2019-03-04T05:09:53.487Z,98463.06
2019-03-04T05:12:24.631Z,98449.88
2019-03-04T05:14:57.455Z,98427.45
2019-03-04T05:17:29.059Z,98423.91
2019-03-04T05:20:01.267Z,98424.20
2019-03-04T05:22:32.625Z,98401.11
2019-03-04T05:25:04.192Z,98391.23
2019-03-04T05:27:36.174Z,98393.87
2019-03-04T05:30:10.505Z,98406.23
2019-03-04T05:32:42.449Z,98388.39
2019-03-04T05:35:15.625Z,98376.59
2019-03-04T05:37:47.329Z,98372.30
2019-03-04T05:40:18.934Z,98359.36
2019-03-04T05:42:50.222Z,98348.19
2019-03-04T05:45:21.607Z,98322.30
2019-03-04T05:47:53.144Z,98316.94
2019-03-04T05:50:24.423Z,98307.76
2019-03-04T05:52:55.703Z,98308.90
2019-03-04T05:55:27.405Z,98288.50
2019-03-04T05:57:58.925Z,98287.36
2019-03-04T06:00:32.078Z,98275.48
2019-03-04T06:03:03.482Z,98276.29
2019-03-04T06:05:34.709Z,98283.64
2019-03-04T06:08:07.107Z,98260.31
2019-03-04T06:10:38.653Z,98234.77
2019-03-04T06:13:12.755Z,98222.92
2019-03-04T06:15:44.047Z,98222.61
2019-03-04T06:18:15.399Z,98215.09
2019-03-04T06:20:47.166Z,98184.08
2019-03-04T06:23:18.508Z,98182.77
2019-03-04T06:25:49.848Z,98223.81
2019-03-04T06:28:21.476Z,98223.38
2019-03-04T06:30:52.775Z,98217.84
2019-03-04T06:33:24.663Z,98209.85
2019-03-04T06:35:55.908Z,98204.25
2019-03-04T06:38:27.833Z,98189.74
2019-03-04T06:40:59.213Z,98186.09
2019-03-04T06:43:30.938Z,98169.85
2019-03-04T06:46:02.252Z,98154.24
2019-03-04T06:48:33.907Z,98151.08
2019-03-04T06:51:07.994Z,98157.15
2019-03-04T06:54:46.381Z,98158.67
2019-03-04T06:57:28.611Z,98152.78
2019-03-04T07:00:37.153Z,98159.79
2019-03-04T07:03:23.297Z,98151.38
2019-03-04T07:05:55.638Z,98147.36
2019-03-04T07:09:16.347Z,98119.69
2019-03-04T07:11:54.738Z,98116.53
2019-03-04T07:14:26.898Z,98093.06
2019-03-04T07:16:58.286Z,98097.38
2019-03-04T07:19:35.350Z,98100.28
2019-03-04T07:22:06.982Z,98102.25
2019-03-04T07:24:38.290Z,98075.98
2019-03-04T07:27:09.531Z,98075.98
2019-03-04T07:29:40.895Z,98090.44
2019-03-04T07:32:13.058Z,98075.80
2019-03-04T07:34:44.377Z,98073.28
2019-03-04T07:37:15.650Z,98084.25
2019-03-04T07:39:46.845Z,98079.35
2019-03-04T07:42:18.505Z,98073.44
2019-03-04T07:44:49.793Z,98068.00
2019-03-04T07:47:21.535Z,98062.16
2019-03-04T07:49:53.526Z,98051.54
2019-03-04T07:52:25.822Z,98046.28
2019-03-04T07:54:57.351Z,98048.14
2019-03-04T07:57:29.082Z,98038.95
2019-03-04T08:00:00.820Z,98035.70
2019-03-04T08:02:32.338Z,98022.62
2019-03-04T08:05:03.723Z,98015.41
2019-03-04T08:07:46.927Z,98009.59
2019-03-04T08:11:39.110Z,98013.34
2019-03-04T08:14:10.777Z,97987.26
2019-03-04T08:16:42.951Z,97963.02
2019-03-04T08:19:14.890Z,97967.13
2019-03-04T08:21:46.162Z,97966.16
2019-03-04T08:24:17.767Z,97962.19
2019-03-04T08:26:49.652Z,97956.08
2019-03-04T08:29:21.510Z,97939.44
2019-03-04T08:31:52.980Z,97939.44
2019-03-04T08:34:30.997Z,97926.19
2019-03-04T08:36:57.429Z,97935.45
2019-03-04T08:39:28.977Z,97918.61
2019-03-04T08:42:00.299Z,97916.36
2019-03-04T08:44:33.363Z,97918.98
2019-03-04T08:47:05.246Z,97927.39
2019-03-04T08:49:36.725Z,97924.19
2019-03-04T08:52:08.274Z,97897.33
2019-03-04T08:54:39.551Z,97909.27
2019-03-04T08:57:10.809Z,97894.06
2019-03-04T09:06:07.080Z,97906.70
2019-03-04T09:08:38.765Z,98033.13
2019-03-04T09:11:10.784Z,98093.33
2019-03-04T09:13:42.813Z,98110.23
2019-03-04T09:16:14.222Z,98095.58
2019-03-04T09:18:45.830Z,98133.05
2019-03-04T09:21:17.193Z,98130.98
2019-03-04T09:23:50.148Z,98140.77
2019-03-04T09:26:21.559Z,98154.93
2019-03-04T09:28:53.327Z,98146.58
2019-03-04T09:31:24.999Z,98151.75
2019-03-04T09:33:57.465Z,98141.81
2019-03-04T09:36:28.773Z,98145.27
2019-03-04T09:39:02.902Z,98130.78
2019-03-04T09:41:34.840Z,98147.14
2019-03-04T09:44:06.150Z,98100.19
2019-03-04T09:46:40.343Z,98092.48
2019-03-04T09:49:11.594Z,98045.38
2019-03-04T09:51:42.852Z,98047.97
2019-03-04T09:54:14.143Z,98069.92
2019-03-04T09:56:45.802Z,98092.64
2019-03-04T09:59:17.079Z,98106.91
2019-03-04T10:02:05.282Z,98106.31
2019-03-04T10:05:34.750Z,98107.57
2019-03-04T10:09:05.653Z,98110.49
2019-03-04T10:12:10.453Z,98097.05
2019-03-04T10:15:39.599Z,98072.92
2019-03-04T10:19:05.273Z,98079.73
2019-03-04T10:22:03.052Z,98087.09
2019-03-04T10:25:17.275Z,98087.41
2019-03-04T10:29:11.788Z,98087.02
2019-03-04T10:32:37.774Z,98084.87
2019-03-04T10:36:01.420Z,98071.91
2019-03-04T10:39:09.967Z,98077.20
2019-03-04T10:42:32.098Z,98056.27
2019-03-04T10:45:49.522Z,98062.65
2019-03-04T10:48:21.027Z,98069.88
2019-03-04T10:50:52.726Z,98087.25
2019-03-04T10:53:24.207Z,98074.04
2019-03-04T10:55:55.470Z,98072.18
2019-03-04T10:58:27.197Z,98077.11
2019-03-04T11:00:59.963Z,98072.58
2019-03-04T11:03:31.889Z,98065.47
2019-03-04T11:06:03.133Z,98071.05
2019-03-04T11:08:34.835Z,98053.81
2019-03-04T11:11:06.525Z,98046.94
2019-03-04T11:13:37.778Z,98052.17
2019-03-04T11:16:09.337Z,98051.05
2019-03-04T11:18:40.836Z,98048.66
2019-03-04T11:21:12.405Z,98055.46
2019-03-04T11:23:43.683Z,98042.70
2019-03-04T11:26:15.052Z,98038.72
2019-03-04T11:28:46.350Z,98039.53
2019-03-04T11:31:17.652Z,98020.51
2019-03-04T11:33:49.252Z,98029.86
2019-03-04T11:36:23.333Z,98033.26
2019-03-04T11:39:00.125Z,98050.13
2019-03-04T11:41:31.397Z,98034.93
2019-03-04T11:44:02.602Z,98037.38
2019-03-04T11:46:34.318Z,98046.36
2019-03-04T11:49:05.566Z,98037.78
2019-03-04T11:51:37.131Z,98020.70
2019-03-04T11:54:08.994Z,98006.89
2019-03-04T11:56:40.248Z,98002.53
2019-03-04T11:59:11.483Z,98009.14
2019-03-04T12:01:46.236Z,98025.27
2019-03-04T12:04:18.176Z,97998.08
2019-03-04T12:06:49.528Z,97989.40
2019-03-04T12:09:22.221Z,97991.86
2019-03-04T12:11:53.474Z,97964.05
2019-03-04T12:14:25.040Z,97973.41
2019-03-04T12:16:56.318Z,97972.82
2019-03-04T12:19:28.869Z,97962.95
2019-03-04T12:22:01.960Z,97967.33
2019-03-04T12:24:34.540Z,97958.11
2019-03-04T12:27:06.439Z,97960.12
2019-03-04T12:29:38.024Z,97962.69
2019-03-04T12:32:20.667Z,97949.29
2019-03-04T12:34:53.073Z,97943.08
2019-03-04T12:37:24.327Z,97977.34
2019-03-04T12:39:55.893Z,98018.34
2019-03-04T12:42:27.190Z,97993.12
2019-03-04T12:44:58.809Z,97989.84
2019-03-04T12:47:30.057Z,98007.29
2019-03-04T12:50:02.031Z,97996.34
2019-03-04T12:52:33.324Z,98006.13
2019-03-04T12:55:05.813Z,98001.47
2019-03-04T12:57:37.566Z,98004.00
2019-03-04T13:00:13.877Z,98001.56
2019-03-04T13:02:45.939Z,97987.32
2019-03-04T13:05:17.885Z,97985.89
2019-03-04T13:07:49.213Z,97976.45
2019-03-04T13:10:22.361Z,97985.07
2019-03-04T13:12:53.713Z,97976.17
2019-03-04T13:15:25.775Z,97966.63
2019-03-04T13:17:58.049Z,97979.38
2019-03-04T13:20:29.738Z,97956.79
2019-03-04T13:23:01.647Z,97987.83
2019-03-04T13:25:33.471Z,97975.20
2019-03-04T13:28:08.360Z,97954.41
2019-03-04T13:30:38.592Z,97973.03
2019-03-04T13:33:10.480Z,97942.33
2019-03-04T13:35:41.801Z,97926.53
2019-03-04T13:38:13.926Z,97938.40
2019-03-04T13:40:45.256Z,97934.57
2019-03-04T13:43:16.923Z,97909.66
2019-03-04T13:45:48.252Z,97916.41
2019-03-04T13:48:19.485Z,97926.89
2019-03-04T13:50:51.321Z,97958.34
2019-03-04T13:53:22.506Z,98014.05
2019-03-04T13:55:53.974Z,98051.95
2019-03-04T13:58:25.495Z,98055.96
2019-03-04T14:00:56.672Z,98105.20
2019-03-04T14:03:28.384Z,98107.10
2019-03-04T14:06:00.728Z,98129.36
2019-03-04T14:08:32.054Z,98131.98
2019-03-04T14:11:04.358Z,98106.72
2019-03-04T14:13:36.277Z,98106.72
2019-03-04T14:16:08.217Z,98128.88
2019-03-04T14:18:39.474Z,98116.30
2019-03-04T14:21:13.883Z,98121.33
2019-03-04T14:23:47.226Z,98125.20
2019-03-04T14:26:18.695Z,98138.16
2019-03-04T14:28:50.615Z,98156.50
2019-03-04T14:31:21.853Z,98140.77
2019-03-04T14:33:54.211Z,98159.47
2019-03-04T14:36:25.440Z,98150.94
2019-03-04T14:38:56.980Z,98159.02
2019-03-04T14:41:28.273Z,98170.13
2019-03-04T14:43:59.547Z,98187.20
2019-03-04T14:46:30.812Z,98186.81
2019-03-04T14:49:02.085Z,98189.61
2019-03-04T14:51:34.230Z,98198.85
2019-03-04T14:54:05.695Z,98193.73
2019-03-04T14:56:37.602Z,98214.77
2019-03-04T14:59:10.943Z,98219.09
2019-03-04T15:01:41.740Z,98227.38
2019-03-04T15:04:13.007Z,98229.15
2019-03-04T15:06:46.140Z,98232.62
2019-03-04T15:09:17.739Z,98240.59
2019-03-04T15:11:50.961Z,98244.62
2019-03-04T15:14:22.271Z,98246.59
2019-03-04T15:17:03.053Z,98256.81
2019-03-04T15:19:28.891Z,98252.23
2019-03-04T15:22:00.484Z,98248.57
2019-03-04T15:24:32.067Z,98259.45
2019-03-04T15:27:04.547Z,98257.89
2019-03-04T15:29:36.128Z,98252.61
2019-03-04T15:32:07.556Z,98261.00
2019-03-04T15:34:38.844Z,98253.94
2019-03-04T15:37:10.424Z,98266.98
2019-03-04T15:39:41.717Z,98267.82
2019-03-04T15:42:13.631Z,98277.55
2019-03-04T15:44:45.271Z,98273.86
2019-03-04T15:47:16.906Z,98278.10
2019-03-04T15:49:48.523Z,98279.61
2019-03-04T15:52:19.942Z,98278.20
2019-03-04T15:54:51.173Z,98286.00
2019-03-04T15:57:22.735Z,98283.92
2019-03-04T15:59:54.003Z,98306.66
2019-03-04T16:02:25.895Z,98300.19
2019-03-04T16:04:57.812Z,98304.74
2019-03-04T16:07:29.100Z,98300.71
2019-03-04T16:10:00.409Z,98305.60
2019-03-04T16:12:32.399Z,98314.23
2019-03-04T16:15:03.944Z,98308.81
2019-03-04T16:17:35.181Z,98329.47
2019-03-04T16:20:15.745Z,98321.64
2019-03-04T16:22:40.646Z,98335.01
2019-03-04T16:25:12.361Z,98322.62
2019-03-04T16:27:43.609Z,98349.51
2019-03-04T16:30:18.419Z,98325.77
2019-03-04T16:32:50.404Z,98338.59
2019-03-04T16:35:21.764Z,98340.74
2019-03-04T16:37:53.728Z,98352.28
2019-03-04T16:40:25.200Z,98341.93
2019-03-04T16:42:59.645Z,98348.39
2019-03-04T16:45:31.322Z,98353.28
2019-03-04T16:48:02.497Z,98352.98
2019-03-04T16:50:34.461Z,98363.81
2019-03-04T16:53:06.131Z,98366.02
2019-03-04T16:55:37.501Z,98365.78
2019-03-04T16:58:08.739Z,98382.85
2019-03-04T17:00:40.216Z,98380.97
2019-03-04T17:03:11.857Z,98389.81
2019-03-04T17:05:43.517Z,98382.48
2019-03-04T17:08:15.112Z,98394.63
2019-03-04T17:10:47.006Z,98395.81
2019-03-04T17:13:18.687Z,98393.77
2019-03-04T17:15:50.565Z,98397.91
2019-03-04T17:18:21.747Z,98399.95
2019-03-04T17:20:53.442Z,98415.55
2019-03-04T17:23:24.717Z,98415.31
2019-03-04T17:25:56.603Z,98415.55
2019-03-04T17:28:28.516Z,98430.59
2019-03-04T17:30:59.714Z,98432.01
2019-03-04T17:33:31.519Z,98447.16
2019-03-04T17:36:02.833Z,98449.52
2019-03-04T17:38:34.731Z,98471.40
2019-03-04T17:41:06.583Z,98459.67
2019-03-04T17:43:38.061Z,98467.76
2019-03-04T17:46:10.236Z,98472.15
2019-03-04T17:48:41.809Z,98457.97
2019-03-04T17:51:13.221Z,98478.97
2019-03-04T17:53:44.447Z,98476.36
2019-03-04T17:56:15.728Z,98488.71
2019-03-04T17:58:47.378Z,98487.19
2019-03-04T18:01:19.641Z,98492.10
2019-03-04T18:03:51.330Z,98491.61
2019-03-04T18:06:23.094Z,98498.62
2019-03-04T18:08:54.689Z,98490.31
2019-03-04T18:11:25.969Z,98511.91
2019-03-04T18:13:57.353Z,98499.17
2019-03-04T18:16:29.382Z,98510.86
2019-03-04T18:19:00.964Z,98518.59
2019-03-04T18:21:32.709Z,98526.30
2019-03-04T18:24:04.069Z,98523.77
2019-03-04T18:26:45.566Z,98530.08
2019-03-04T18:29:50.611Z,98545.64
2019-03-04T18:33:16.342Z,98545.17
2019-03-04T18:36:15.763Z,98544.31
2019-03-04T18:39:55.561Z,98542.60
2019-03-04T18:43:17.105Z,98553.95
2019-03-04T18:46:48.684Z,98564.81
2019-03-04T18:49:20.046Z,98576.56
2019-03-04T18:51:51.428Z,98581.22
2019-03-04T18:54:23.953Z,98589.03
2019-03-04T18:56:55.545Z,98593.86
2019-03-04T18:59:27.281Z,98605.95
2019-03-04T19:01:58.531Z,98613.49
2019-03-04T19:04:30.222Z,98608.28
2019-03-04T19:07:02.095Z,98612.13
2019-03-04T19:09:33.747Z,98613.77
2019-03-04T19:12:05.092Z,98616.03
2019-03-04T19:14:36.840Z,98623.81
2019-03-04T19:17:08.249Z,98633.30
2019-03-04T19:19:39.936Z,98642.63
2019-03-04T19:22:11.609Z,98640.64
2019-03-04T19:24:42.872Z,98641.84
2019-03-04T19:27:14.473Z,98653.59
2019-03-04T19:29:46.559Z,98654.89
2019-03-04T19:32:18.344Z,98665.06
2019-03-04T19:34:49.633Z,98658.45
2019-03-04T19:37:21.647Z,98661.50
2019-03-04T19:39:54.077Z,98665.57
2019-03-04T19:42:25.459Z,98683.16
2019-03-04T19:44:57.364Z,98685.00
2019-03-04T19:47:30.295Z,98681.25
2019-03-04T19:50:01.645Z,98682.58
2019-03-04T19:52:33.217Z,98703.77
2019-03-04T19:55:06.113Z,98692.30
2019-03-04T19:57:37.592Z,98712.35
2019-03-04T20:00:11.848Z,98710.61
2019-03-04T20:02:44.508Z,98708.62
2019-03-04T20:05:16.322Z,98708.72
2019-03-04T20:07:48.272Z,98713.59
2019-03-04T20:10:19.923Z,98716.47
2019-03-04T20:13:01.472Z,98727.17
2019-03-04T20:15:32.885Z,98729.30
2019-03-04T20:18:04.099Z,98725.95
2019-03-04T20:20:35.604Z,98738.16
2019-03-04T20:23:07.258Z,98732.55
2019-03-04T20:25:38.905Z,98740.44
2019-03-04T20:28:11.898Z,98735.56
2019-03-04T20:30:43.224Z,98742.48
2019-03-04T20:33:14.438Z,98741.91
2019-03-04T20:35:46.124Z,98749.77
2019-03-04T20:38:17.773Z,98757.96
2019-03-04T20:40:51.150Z,98757.27
2019-03-04T20:43:22.499Z,98768.34
2019-03-04T20:45:54.052Z,98772.69
2019-03-04T20:48:25.380Z,98765.32
2019-03-04T20:50:57.285Z,98766.70
2019-03-04T20:53:28.557Z,98771.64
2019-03-04T20:56:00.636Z,98785.00
2019-03-04T20:58:32.105Z,98775.23
2019-03-04T21:01:07.507Z,98787.02
2019-03-04T21:03:38.946Z,98790.83
2019-03-04T21:06:11.488Z,98787.27
2019-03-04T21:08:44.810Z,98799.72
2019-03-04T21:11:19.073Z,98804.92
2019-03-04T21:13:51.078Z,98811.90
2019-03-04T21:16:22.715Z,98814.94
2019-03-04T21:18:55.391Z,98821.00
2019-03-04T21:21:26.743Z,98820.84
2019-03-04T21:23:58.416Z,98818.58
2019-03-04T21:26:40.600Z,98820.81
2019-03-04T21:30:33.312Z,98825.13
2019-03-04T21:33:40.356Z,98839.72
2019-03-04T21:37:05.944Z,98827.52
2019-03-04T21:39:37.802Z,98837.98
2019-03-04T21:42:21.042Z,98836.32
2019-03-04T21:45:39.729Z,98829.06
2019-03-04T21:48:30.659Z,98851.09
2019-03-04T21:51:18.096Z,98838.09
2019-03-04T21:53:50.340Z,98841.65
2019-03-04T21:57:17.671Z,98850.13
2019-03-04T21:59:48.985Z,98854.45
2019-03-04T22:02:39.421Z,98851.43
2019-03-04T22:05:14.458Z,98854.31
2019-03-04T22:07:45.911Z,98848.64
2019-03-04T22:10:17.702Z,98854.73
2019-03-04T22:12:49.464Z,98852.47
2019-03-04T22:15:20.913Z,98855.06
2019-03-04T22:17:52.690Z,98857.28
2019-03-04T22:20:24.071Z,98859.80
2019-03-04T22:22:55.491Z,98859.33
2019-03-04T22:25:26.962Z,98859.33
2019-03-04T22:27:58.627Z,98861.94
2019-03-04T22:30:29.948Z,98871.98
2019-03-04T22:33:02.130Z,98866.64
2019-03-04T22:35:33.498Z,98873.06
2019-03-04T22:38:05.069Z,98879.70
2019-03-04T22:40:36.376Z,98876.16
2019-03-04T22:43:07.684Z,98883.56
2019-03-04T22:45:39.199Z,98879.23
2019-03-04T22:48:11.424Z,98880.16
2019-03-04T22:50:42.756Z,98871.92
2019-03-04T22:53:14.283Z,98882.75
2019-03-04T22:55:45.656Z,98876.25
2019-03-04T22:58:27.818Z,98872.53
2019-03-04T23:01:36.265Z,98877.55
2019-03-04T23:04:51.313Z,98874.03
2019-03-04T23:07:35.581Z,98873.59
2019-03-04T23:10:35.701Z,98873.64
2019-03-04T23:13:45.834Z,98881.79
2019-03-04T23:16:24.425Z,98878.19
2019-03-04T23:18:56.706Z,98871.30
2019-03-04T23:21:28.732Z,98877.30
2019-03-04T23:24:00.254Z,98871.32
2019-03-04T23:26:32.187Z,98862.98
2019-03-04T23:29:03.505Z,98864.31
2019-03-04T23:31:34.887Z,98855.68
2019-03-04T23:34:07.001Z,98857.42
2019-03-04T23:36:38.917Z,98860.80
2019-03-04T23:39:10.885Z,98854.93
2019-03-04T23:41:42.066Z,98853.19
2019-03-04T23:44:13.582Z,98845.41
2019-03-04T23:46:45.037Z,98851.61
2019-03-04T23:49:16.247Z,98850.39
2019-03-04T23:51:47.734Z,98853.45
2019-03-04T23:54:19.122Z,98853.02
2019-03-04T23:56:50.383Z,98858.44
2019-03-04T23:59:21.911Z,98845.42
